To NAV CANADA Home Page Login to a new session Search on AWWS site Feedback and Comments Disclaimer Vers la page française équivalente Tips FAQ What's new on the site To the Forecasts and Observations / NOTAM section To "File a Flight Plan" website Publications and other links Update of the User's profile FIC Telephone Numbers My Weather Data Folder Route Weather Data Regional Weather Data Local Weather Data To the Forecasts and Observations / NOTAM section
Request Generated 06/30/2015 at 21:22:16 UTC . Weather information available at that time is displayed.

METAR/TAF

REGINA/REGINA INTL/SK    

METAR CYQR 302100Z 02003KT 1 1/4SM -SHRA FU OVC050 18/15 A2994 RMK
FU3SC5 SLP144 DENSITY ALT 2600FT=
SPECI CYQR 302046Z 36004KT 1 1/4SM -SHRA FU SCT020 OVC080 19/15 A2994
RMK FU3SC1AC5 SC TR SLP144 DENSITY ALT 2700FT=
SPECI CYQR 302039Z 01004KT 1 1/4SM FU SCT020 OVC080 19/15 A2994 RMK
FU3SC1AC4 SLP145 DENSITY ALT 2700FT=
METAR CYQR 302000Z 09004KT 060V130 1 1/4SM -SHRA FU OVC110 20/15
A2993 RMK FU3AC5 SLP139 DENSITY ALT 2800FT=
SPECI CYQR 301922Z 04006KT 1 1/2SM FU BKN110 19/15 A2993 RMK FU2AC5
SLP141 DENSITY ALT 2700FT=
METAR CYQR 301900Z 06006KT 350V100 2SM FU SCT055 BKN120 19/15 A2994
RMK FU2SC1AC4 SLP141 DENSITY ALT 2800FT=

TAF CYQR 301738Z 3018/0118 20008KT 3/4SM FU VV020 TEMPO 3018/3020 3SM
-SHRA FU SCT020 OVC070
FM302000 07008KT 6SM -RA FU BKN060 OVC120 TEMPO 3020/0104 1SM
-SHRA FU
FM010400 VRB03KT 2SM FU SCT010 BKN100
FM010900 VRB03KT 2SM FU SCT150 PROB30 0109/0115 3/4SM FU BR
FM011500 31008KT 2SM FU SCT050 BKN150
RMK NXT FCST BY 010000Z=
Your time UTC time
Weather data provided by Environment Canada and NAV CANADA